This is the latest recevied weather packets stored in our database for station/object K5NOC-12. If no packets are shown the sender has not sent any weather packets the latest 1 day(s).
| Time | Temp. | Humidity | Pressure | Rain* | Wind** | Luminosity | Snow |
|---|---|---|---|---|---|---|---|
| 1778095656 | 13.89° C | 52% | 1016.9 hPa | 0 mm | - | - | - |
| 1778094756 | 13.89° C | 50% | 1016.9 hPa | 0 mm | - | - | - |
| 1778089355 | 12.78° C | 53% | 1017.9 hPa | 0 mm | - | - | - |
| 1778088455 | 12.78° C | 54% | 1017.9 hPa | 0 mm | - | - | - |
| 1778086654 | 11.11° C | 60% | 1017.7 hPa | 0 mm | - | - | - |
| 1778085754 | 10.56° C | 61% | 1017.8 hPa | 0 mm | - | - | - |
| 1778084854 | 10° C | 62% | 1017.7 hPa | 0 mm | - | - | - |
| 1778083954 | 9.44° C | 64% | 1017.4 hPa | 0 mm | - | - | - |
| 1778079453 | 7.78° C | 67% | 1017.1 hPa | 0 mm | - | - | - |
| 1778078553 | 7.78° C | 68% | 1016.9 hPa | 0 mm | - | - | - |
| 1778074952 | 6.67° C | 70% | 1016.2 hPa | 0 mm | - | - | - |
| 1778074052 | 6.11° C | 70% | 1016.4 hPa | 0 mm | - | - | - |
| 1778073152 | 6.11° C | 71% | 1016.6 hPa | 0 mm | - | - | - |
| 1778072252 | 6.11° C | 71% | 1017 hPa | 0 mm | - | - | - |
| 1778071352 | 6.11° C | 72% | 1016.8 hPa | 0 mm | - | - | - |
| 1778066851 | 5.56° C | 78% | 1015.9 hPa | 0 mm | - | - | - |
| 1778065951 | 5° C | 81% | 1015.7 hPa | 0 mm | - | - | - |
| 1778063250 | 6.11° C | 80% | 1015.7 hPa | 0 mm | - | - | - |
| 1778062350 | 6.67° C | 78% | 1015.8 hPa | 0 mm | - | - | - |
| 1778061450 | 6.67° C | 79% | 1015.3 hPa | 0 mm | - | - | - |
| 1778057849 | 7.22° C | 76% | 1014.5 hPa | 0 mm | - | - | - |
| 1778056949 | 7.22° C | 76% | 1014.5 hPa | 0 mm | - | - | - |
| 1778054248 | 6.67° C | 76% | 1013.8 hPa | 0 mm | - | - | - |
| 1778053348 | 6.67° C | 76% | 1013.3 hPa | 0 mm | - | - | - |
| 1778052448 | 6.67° C | 76% | 1013.2 hPa | 0 mm | - | - | - |
* Rain latest hour (hover to see other rain measurements)
** Current wind speed in m/s (hover to see current wind gust speed)